sensor_id;sensor_type;location;lat;lon;timestamp;P1;durP1;ratioP1;P2;durP2;ratioP2
19877;SDS011;10101;52.204;9.910;2023-07-13T00:00:54;3.50;;;2.00;;
19877;SDS011;10101;52.204;9.910;2023-07-13T00:03:22;4.13;;;1.90;;
19877;SDS011;10101;52.204;9.910;2023-07-13T00:05:56;3.37;;;2.47;;
19877;SDS011;10101;52.204;9.910;2023-07-13T00:08:23;2.50;;;2.00;;
19877;SDS011;10101;52.204;9.910;2023-07-13T00:10:51;4.73;;;2.30;;
19877;SDS011;10101;52.204;9.910;2023-07-13T00:13:19;4.33;;;2.10;;
19877;SDS011;10101;52.204;9.910;2023-07-13T00:15:46;2.90;;;2.10;;
19877;SDS011;10101;52.204;9.910;2023-07-13T00:18:12;4.17;;;2.00;;
19877;SDS011;10101;52.204;9.910;2023-07-13T00:20:40;2.80;;;1.93;;
19877;SDS011;10101;52.204;9.910;2023-07-13T00:23:08;3.90;;;2.10;;
19877;SDS011;10101;52.204;9.910;2023-07-13T00:25:34;6.37;;;1.93;;
19877;SDS011;10101;52.204;9.910;2023-07-13T00:28:01;4.60;;;2.00;;
19877;SDS011;10101;52.204;9.910;2023-07-13T00:30:28;3.50;;;1.90;;
19877;SDS011;10101;52.204;9.910;2023-07-13T00:32:55;4.00;;;2.10;;
19877;SDS011;10101;52.204;9.910;2023-07-13T00:35:22;4.17;;;2.23;;
19877;SDS011;10101;52.204;9.910;2023-07-13T00:37:50;4.07;;;1.80;;
19877;SDS011;10101;52.204;9.910;2023-07-13T00:40:17;3.30;;;1.87;;
19877;SDS011;10101;52.204;9.910;2023-07-13T00:42:44;3.83;;;1.90;;
19877;SDS011;10101;52.204;9.910;2023-07-13T00:48:11;3.10;;;1.70;;
19877;SDS011;10101;52.204;9.910;2023-07-13T00:50:38;3.17;;;2.00;;
19877;SDS011;10101;52.204;9.910;2023-07-13T00:53:08;4.13;;;1.80;;
19877;SDS011;10101;52.204;9.910;2023-07-13T00:55:36;3.37;;;1.70;;
19877;SDS011;10101;52.204;9.910;2023-07-13T00:58:04;4.43;;;2.27;;
19877;SDS011;10101;52.204;9.910;2023-07-13T01:00:32;5.10;;;1.90;;
19877;SDS011;10101;52.204;9.910;2023-07-13T01:03:02;4.83;;;1.97;;
19877;SDS011;10101;52.204;9.910;2023-07-13T01:05:29;6.03;;;2.30;;
19877;SDS011;10101;52.204;9.910;2023-07-13T01:07:57;3.80;;;2.00;;
19877;SDS011;10101;52.204;9.910;2023-07-13T01:10:27;4.67;;;1.90;;
19877;SDS011;10101;52.204;9.910;2023-07-13T01:12:54;5.43;;;1.70;;
19877;SDS011;10101;52.204;9.910;2023-07-13T01:15:34;4.53;;;1.93;;
19877;SDS011;10101;52.204;9.910;2023-07-13T01:18:03;3.40;;;2.07;;
19877;SDS011;10101;52.204;9.910;2023-07-13T01:20:31;2.87;;;1.93;;
19877;SDS011;10101;52.204;9.910;2023-07-13T01:23:02;4.07;;;2.00;;
19877;SDS011;10101;52.204;9.910;2023-07-13T01:25:31;4.63;;;2.07;;
19877;SDS011;10101;52.204;9.910;2023-07-13T01:27:58;6.07;;;2.20;;
19877;SDS011;10101;52.204;9.910;2023-07-13T01:30:25;1.97;;;1.77;;
19877;SDS011;10101;52.204;9.910;2023-07-13T01:32:52;2.33;;;2.10;;
19877;SDS011;10101;52.204;9.910;2023-07-13T01:35:18;5.53;;;2.17;;
19877;SDS011;10101;52.204;9.910;2023-07-13T01:37:45;3.80;;;2.10;;
19877;SDS011;10101;52.204;9.910;2023-07-13T01:40:13;4.50;;;1.97;;
19877;SDS011;10101;52.204;9.910;2023-07-13T01:42:40;4.43;;;2.37;;
19877;SDS011;10101;52.204;9.910;2023-07-13T01:45:07;4.43;;;2.07;;
19877;SDS011;10101;52.204;9.910;2023-07-13T01:47:34;3.83;;;2.17;;
19877;SDS011;10101;52.204;9.910;2023-07-13T01:50:01;4.93;;;2.33;;
19877;SDS011;10101;52.204;9.910;2023-07-13T01:52:28;3.23;;;2.23;;
19877;SDS011;10101;52.204;9.910;2023-07-13T01:54:55;7.17;;;2.10;;
19877;SDS011;10101;52.204;9.910;2023-07-13T01:57:23;4.23;;;1.87;;
19877;SDS011;10101;52.204;9.910;2023-07-13T01:59:50;4.70;;;2.20;;
19877;SDS011;10101;52.204;9.910;2023-07-13T02:02:16;5.07;;;1.60;;
19877;SDS011;10101;52.204;9.910;2023-07-13T02:04:43;8.80;;;2.10;;
19877;SDS011;10101;52.204;9.910;2023-07-13T02:07:10;5.10;;;2.00;;
19877;SDS011;10101;52.204;9.910;2023-07-13T02:09:37;3.50;;;1.80;;
19877;SDS011;10101;52.204;9.910;2023-07-13T02:12:04;4.43;;;1.80;;
19877;SDS011;10101;52.204;9.910;2023-07-13T02:14:33;5.27;;;1.90;;
19877;SDS011;10101;52.204;9.910;2023-07-13T02:17:00;2.93;;;2.00;;
19877;SDS011;10101;52.204;9.910;2023-07-13T02:19:26;5.90;;;1.90;;
19877;SDS011;10101;52.204;9.910;2023-07-13T02:21:53;2.87;;;2.07;;
19877;SDS011;10101;52.204;9.910;2023-07-13T02:24:20;4.00;;;2.13;;
19877;SDS011;10101;52.204;9.910;2023-07-13T02:26:46;4.07;;;1.87;;
19877;SDS011;10101;52.204;9.910;2023-07-13T02:29:13;5.10;;;2.00;;
19877;SDS011;10101;52.204;9.910;2023-07-13T02:31:41;3.33;;;1.60;;
19877;SDS011;10101;52.204;9.910;2023-07-13T02:34:08;3.10;;;1.53;;
19877;SDS011;10101;52.204;9.910;2023-07-13T02:36:35;4.13;;;1.57;;
19877;SDS011;10101;52.204;9.910;2023-07-13T02:39:04;2.73;;;1.50;;
19877;SDS011;10101;52.204;9.910;2023-07-13T02:41:31;2.77;;;1.67;;
19877;SDS011;10101;52.204;9.910;2023-07-13T02:43:59;2.63;;;1.40;;
19877;SDS011;10101;52.204;9.910;2023-07-13T02:46:28;2.93;;;1.67;;
19877;SDS011;10101;52.204;9.910;2023-07-13T02:48:56;5.37;;;1.60;;
19877;SDS011;10101;52.204;9.910;2023-07-13T02:51:23;4.10;;;1.57;;
19877;SDS011;10101;52.204;9.910;2023-07-13T02:53:50;3.63;;;2.03;;
19877;SDS011;10101;52.204;9.910;2023-07-13T02:56:17;4.07;;;1.73;;
19877;SDS011;10101;52.204;9.910;2023-07-13T02:58:45;3.43;;;1.80;;
19877;SDS011;10101;52.204;9.910;2023-07-13T03:01:11;4.47;;;2.00;;
19877;SDS011;10101;52.204;9.910;2023-07-13T03:03:43;3.90;;;1.90;;
19877;SDS011;10101;52.204;9.910;2023-07-13T03:06:12;2.93;;;1.90;;
19877;SDS011;10101;52.204;9.910;2023-07-13T03:08:39;4.87;;;2.00;;
19877;SDS011;10101;52.204;9.910;2023-07-13T03:11:08;5.00;;;2.30;;
19877;SDS011;10101;52.204;9.910;2023-07-13T03:13:36;5.83;;;2.20;;
19877;SDS011;10101;52.204;9.910;2023-07-13T03:16:04;6.17;;;1.93;;
19877;SDS011;10101;52.204;9.910;2023-07-13T03:18:31;3.00;;;1.97;;
19877;SDS011;10101;52.204;9.910;2023-07-13T03:20:58;3.00;;;1.70;;
19877;SDS011;10101;52.204;9.910;2023-07-13T03:23:26;4.97;;;2.07;;
19877;SDS011;10101;52.204;9.910;2023-07-13T03:26:00;6.40;;;2.10;;
19877;SDS011;10101;52.204;9.910;2023-07-13T03:28:29;3.03;;;1.90;;
19877;SDS011;10101;52.204;9.910;2023-07-13T03:30:59;2.97;;;2.07;;
19877;SDS011;10101;52.204;9.910;2023-07-13T03:33:27;4.67;;;2.00;;
19877;SDS011;10101;52.204;9.910;2023-07-13T03:35:54;4.47;;;2.10;;
19877;SDS011;10101;52.204;9.910;2023-07-13T03:38:21;2.90;;;2.10;;
19877;SDS011;10101;52.204;9.910;2023-07-13T03:40:49;5.77;;;2.37;;
19877;SDS011;10101;52.204;9.910;2023-07-13T03:43:16;4.57;;;2.10;;
19877;SDS011;10101;52.204;9.910;2023-07-13T03:45:43;5.63;;;1.87;;
19877;SDS011;10101;52.204;9.910;2023-07-13T03:48:10;3.03;;;1.90;;
19877;SDS011;10101;52.204;9.910;2023-07-13T03:50:36;2.47;;;1.93;;
19877;SDS011;10101;52.204;9.910;2023-07-13T03:53:03;5.67;;;2.07;;
19877;SDS011;10101;52.204;9.910;2023-07-13T03:55:30;4.50;;;2.07;;
19877;SDS011;10101;52.204;9.910;2023-07-13T03:57:59;5.87;;;2.30;;
19877;SDS011;10101;52.204;9.910;2023-07-13T04:00:27;4.03;;;2.03;;
19877;SDS011;10101;52.204;9.910;2023-07-13T04:02:54;6.93;;;2.40;;
19877;SDS011;10101;52.204;9.910;2023-07-13T04:05:21;5.47;;;1.83;;
19877;SDS011;10101;52.204;9.910;2023-07-13T04:07:47;5.83;;;2.10;;
19877;SDS011;10101;52.204;9.910;2023-07-13T04:10:14;4.37;;;2.17;;
19877;SDS011;10101;52.204;9.910;2023-07-13T04:12:41;4.20;;;2.13;;
19877;SDS011;10101;52.204;9.910;2023-07-13T04:15:09;4.30;;;2.03;;
19877;SDS011;10101;52.204;9.910;2023-07-13T04:17:36;3.97;;;2.20;;
19877;SDS011;10101;52.204;9.910;2023-07-13T04:20:03;5.47;;;1.97;;
19877;SDS011;10101;52.204;9.910;2023-07-13T04:22:31;3.60;;;2.00;;
19877;SDS011;10101;52.204;9.910;2023-07-13T04:24:58;5.07;;;2.10;;
19877;SDS011;10101;52.204;9.910;2023-07-13T04:27:24;5.87;;;2.20;;
19877;SDS011;10101;52.204;9.910;2023-07-13T04:29:51;5.73;;;2.00;;
19877;SDS011;10101;52.204;9.910;2023-07-13T04:32:19;5.00;;;1.90;;
19877;SDS011;10101;52.204;9.910;2023-07-13T04:34:46;5.27;;;2.13;;
19877;SDS011;10101;52.204;9.910;2023-07-13T04:37:18;5.50;;;2.00;;
19877;SDS011;10101;52.204;9.910;2023-07-13T04:39:46;4.67;;;2.13;;
19877;SDS011;10101;52.204;9.910;2023-07-13T04:42:12;6.97;;;2.30;;
19877;SDS011;10101;52.204;9.910;2023-07-13T04:44:39;5.23;;;2.10;;
19877;SDS011;10101;52.204;9.910;2023-07-13T04:47:06;3.50;;;1.70;;
19877;SDS011;10101;52.204;9.910;2023-07-13T04:49:34;3.47;;;1.77;;
19877;SDS011;10101;52.204;9.910;2023-07-13T04:52:01;5.43;;;1.87;;
19877;SDS011;10101;52.204;9.910;2023-07-13T04:54:28;4.40;;;1.70;;
19877;SDS011;10101;52.204;9.910;2023-07-13T04:56:54;2.77;;;1.90;;
19877;SDS011;10101;52.204;9.910;2023-07-13T04:59:21;5.57;;;2.07;;
19877;SDS011;10101;52.204;9.910;2023-07-13T05:01:48;7.40;;;2.23;;
19877;SDS011;10101;52.204;9.910;2023-07-13T05:04:15;4.77;;;2.23;;
19877;SDS011;10101;52.204;9.910;2023-07-13T05:06:43;4.97;;;2.03;;
19877;SDS011;10101;52.204;9.910;2023-07-13T05:09:09;2.93;;;1.70;;
19877;SDS011;10101;52.204;9.910;2023-07-13T05:11:37;4.53;;;1.93;;
19877;SDS011;10101;52.204;9.910;2023-07-13T05:14:04;6.93;;;2.10;;
19877;SDS011;10101;52.204;9.910;2023-07-13T05:16:31;3.60;;;2.30;;
19877;SDS011;10101;52.204;9.910;2023-07-13T05:18:58;4.53;;;1.77;;
19877;SDS011;10101;52.204;9.910;2023-07-13T05:21:24;3.83;;;1.93;;
19877;SDS011;10101;52.204;9.910;2023-07-13T05:23:53;4.90;;;1.97;;
19877;SDS011;10101;52.204;9.910;2023-07-13T05:26:19;7.83;;;1.90;;
19877;SDS011;10101;52.204;9.910;2023-07-13T05:28:46;4.17;;;1.80;;
19877;SDS011;10101;52.204;9.910;2023-07-13T05:31:13;5.03;;;1.80;;
19877;SDS011;10101;52.204;9.910;2023-07-13T05:33:40;4.87;;;2.20;;
19877;SDS011;10101;52.204;9.910;2023-07-13T05:36:06;4.07;;;1.63;;
19877;SDS011;10101;52.204;9.910;2023-07-13T05:38:33;5.77;;;1.90;;
19877;SDS011;10101;52.204;9.910;2023-07-13T05:41:01;3.40;;;1.60;;
19877;SDS011;10101;52.204;9.910;2023-07-13T05:43:28;5.70;;;1.70;;
19877;SDS011;10101;52.204;9.910;2023-07-13T05:45:55;7.57;;;2.20;;
19877;SDS011;10101;52.204;9.910;2023-07-13T05:48:23;5.63;;;1.90;;
19877;SDS011;10101;52.204;9.910;2023-07-13T05:50:50;5.87;;;1.90;;
19877;SDS011;10101;52.204;9.910;2023-07-13T05:53:17;7.50;;;1.70;;
19877;SDS011;10101;52.204;9.910;2023-07-13T05:55:43;5.70;;;1.83;;
19877;SDS011;10101;52.204;9.910;2023-07-13T05:58:13;6.53;;;2.07;;
19877;SDS011;10101;52.204;9.910;2023-07-13T06:00:40;6.30;;;2.00;;
19877;SDS011;10101;52.204;9.910;2023-07-13T06:03:07;5.70;;;2.03;;
19877;SDS011;10101;52.204;9.910;2023-07-13T06:05:34;4.17;;;1.80;;
19877;SDS011;10101;52.204;9.910;2023-07-13T06:08:02;5.77;;;1.80;;
19877;SDS011;10101;52.204;9.910;2023-07-13T06:10:31;5.57;;;1.80;;
19877;SDS011;10101;52.204;9.910;2023-07-13T06:12:58;3.03;;;1.83;;
19877;SDS011;10101;52.204;9.910;2023-07-13T06:15:26;5.50;;;2.10;;
19877;SDS011;10101;52.204;9.910;2023-07-13T06:17:53;6.23;;;1.93;;
19877;SDS011;10101;52.204;9.910;2023-07-13T06:20:20;8.87;;;2.00;;
19877;SDS011;10101;52.204;9.910;2023-07-13T06:22:47;4.90;;;1.77;;
19877;SDS011;10101;52.204;9.910;2023-07-13T06:25:13;5.47;;;1.90;;
19877;SDS011;10101;52.204;9.910;2023-07-13T06:27:40;8.10;;;2.40;;
19877;SDS011;10101;52.204;9.910;2023-07-13T06:30:07;5.87;;;2.00;;
19877;SDS011;10101;52.204;9.910;2023-07-13T06:32:36;3.47;;;1.60;;
19877;SDS011;10101;52.204;9.910;2023-07-13T06:35:04;6.40;;;1.97;;
19877;SDS011;10101;52.204;9.910;2023-07-13T06:37:31;4.73;;;2.07;;
19877;SDS011;10101;52.204;9.910;2023-07-13T06:39:58;5.43;;;1.80;;
19877;SDS011;10101;52.204;9.910;2023-07-13T06:42:25;3.57;;;1.83;;
19877;SDS011;10101;52.204;9.910;2023-07-13T06:44:51;6.33;;;1.97;;
19877;SDS011;10101;52.204;9.910;2023-07-13T06:47:18;3.73;;;1.40;;
19877;SDS011;10101;52.204;9.910;2023-07-13T06:49:46;6.93;;;1.63;;
19877;SDS011;10101;52.204;9.910;2023-07-13T06:52:13;8.13;;;1.60;;
19877;SDS011;10101;52.204;9.910;2023-07-13T06:54:39;5.40;;;1.83;;
19877;SDS011;10101;52.204;9.910;2023-07-13T06:57:06;5.20;;;1.63;;
19877;SDS011;10101;52.204;9.910;2023-07-13T06:59:33;6.30;;;1.70;;
19877;SDS011;10101;52.204;9.910;2023-07-13T07:01:59;6.87;;;1.80;;
19877;SDS011;10101;52.204;9.910;2023-07-13T07:04:26;2.40;;;1.40;;
19877;SDS011;10101;52.204;9.910;2023-07-13T07:06:54;5.10;;;1.43;;
19877;SDS011;10101;52.204;9.910;2023-07-13T07:09:21;4.40;;;1.67;;
19877;SDS011;10101;52.204;9.910;2023-07-13T07:11:48;5.00;;;1.60;;
19877;SDS011;10101;52.204;9.910;2023-07-13T07:14:15;3.47;;;1.37;;
19877;SDS011;10101;52.204;9.910;2023-07-13T07:16:42;2.80;;;1.10;;
19877;SDS011;10101;52.204;9.910;2023-07-13T07:19:09;4.10;;;1.60;;
19877;SDS011;10101;52.204;9.910;2023-07-13T07:21:36;4.13;;;1.60;;
19877;SDS011;10101;52.204;9.910;2023-07-13T07:24:04;3.80;;;1.50;;
19877;SDS011;10101;52.204;9.910;2023-07-13T07:26:32;4.40;;;1.60;;
19877;SDS011;10101;52.204;9.910;2023-07-13T07:28:59;2.77;;;1.33;;
19877;SDS011;10101;52.204;9.910;2023-07-13T07:31:26;2.30;;;1.40;;
19877;SDS011;10101;52.204;9.910;2023-07-13T07:33:52;4.90;;;1.27;;
19877;SDS011;10101;52.204;9.910;2023-07-13T07:36:19;2.40;;;1.40;;
19877;SDS011;10101;52.204;9.910;2023-07-13T07:38:46;5.37;;;1.30;;
19877;SDS011;10101;52.204;9.910;2023-07-13T07:41:14;5.13;;;1.60;;
19877;SDS011;10101;52.204;9.910;2023-07-13T07:43:41;3.77;;;1.30;;
19877;SDS011;10101;52.204;9.910;2023-07-13T07:46:07;3.53;;;1.30;;
19877;SDS011;10101;52.204;9.910;2023-07-13T07:48:34;5.47;;;1.30;;
19877;SDS011;10101;52.204;9.910;2023-07-13T07:51:01;2.97;;;1.47;;
19877;SDS011;10101;52.204;9.910;2023-07-13T07:53:27;3.80;;;1.47;;
19877;SDS011;10101;52.204;9.910;2023-07-13T07:55:54;6.43;;;1.50;;
19877;SDS011;10101;52.204;9.910;2023-07-13T07:58:22;4.83;;;1.57;;
19877;SDS011;10101;52.204;9.910;2023-07-13T08:00:49;4.30;;;1.20;;
19877;SDS011;10101;52.204;9.910;2023-07-13T08:03:16;3.53;;;1.50;;
19877;SDS011;10101;52.204;9.910;2023-07-13T08:05:42;3.50;;;1.37;;
19877;SDS011;10101;52.204;9.910;2023-07-13T08:08:09;6.13;;;1.33;;
19877;SDS011;10101;52.204;9.910;2023-07-13T08:10:36;6.83;;;1.17;;
19877;SDS011;10101;52.204;9.910;2023-07-13T08:13:03;4.63;;;1.27;;
19877;SDS011;10101;52.204;9.910;2023-07-13T08:15:31;5.53;;;1.50;;
19877;SDS011;10101;52.204;9.910;2023-07-13T08:17:57;5.03;;;1.40;;
19877;SDS011;10101;52.204;9.910;2023-07-13T08:20:24;8.00;;;1.37;;
19877;SDS011;10101;52.204;9.910;2023-07-13T08:22:51;5.40;;;1.17;;
19877;SDS011;10101;52.204;9.910;2023-07-13T08:25:18;5.47;;;1.10;;
19877;SDS011;10101;52.204;9.910;2023-07-13T08:27:45;4.03;;;1.30;;
19877;SDS011;10101;52.204;9.910;2023-07-13T08:30:12;3.93;;;1.03;;
19877;SDS011;10101;52.204;9.910;2023-07-13T08:32:40;5.30;;;1.27;;
19877;SDS011;10101;52.204;9.910;2023-07-13T08:35:07;6.53;;;1.43;;
19877;SDS011;10101;52.204;9.910;2023-07-13T08:37:34;4.50;;;1.00;;
19877;SDS011;10101;52.204;9.910;2023-07-13T08:40:01;3.53;;;1.33;;
19877;SDS011;10101;52.204;9.910;2023-07-13T08:42:32;4.80;;;1.33;;
19877;SDS011;10101;52.204;9.910;2023-07-13T08:45:04;1.73;;;1.00;;
19877;SDS011;10101;52.204;9.910;2023-07-13T08:47:39;6.37;;;1.10;;
19877;SDS011;10101;52.204;9.910;2023-07-13T08:50:12;4.50;;;1.40;;
19877;SDS011;10101;52.204;9.910;2023-07-13T08:52:43;3.47;;;1.23;;
19877;SDS011;10101;52.204;9.910;2023-07-13T08:55:12;1.90;;;1.20;;
19877;SDS011;10101;52.204;9.910;2023-07-13T08:57:41;2.97;;;1.20;;
19877;SDS011;10101;52.204;9.910;2023-07-13T09:00:09;2.23;;;1.20;;
19877;SDS011;10101;52.204;9.910;2023-07-13T09:02:39;3.97;;;1.20;;
19877;SDS011;10101;52.204;9.910;2023-07-13T09:05:13;3.43;;;1.30;;
19877;SDS011;10101;52.204;9.910;2023-07-13T09:07:53;6.57;;;1.20;;
19877;SDS011;10101;52.204;9.910;2023-07-13T09:10:27;3.33;;;1.67;;
19877;SDS011;10101;52.204;9.910;2023-07-13T09:13:02;3.57;;;1.60;;
19877;SDS011;10101;52.204;9.910;2023-07-13T09:15:43;2.47;;;1.30;;
19877;SDS011;10101;52.204;9.910;2023-07-13T09:18:15;4.03;;;1.57;;
19877;SDS011;10101;52.204;9.910;2023-07-13T09:20:50;6.90;;;1.70;;
19877;SDS011;10101;52.204;9.910;2023-07-13T09:23:20;6.23;;;1.40;;
19877;SDS011;10101;52.204;9.910;2023-07-13T09:25:49;2.40;;;1.30;;
19877;SDS011;10101;52.204;9.910;2023-07-13T09:28:22;3.53;;;1.33;;
19877;SDS011;10101;52.204;9.910;2023-07-13T09:30:52;2.77;;;1.50;;
19877;SDS011;10101;52.204;9.910;2023-07-13T09:33:26;3.67;;;1.60;;
19877;SDS011;10101;52.204;9.910;2023-07-13T09:35:54;6.60;;;1.70;;
19877;SDS011;10101;52.204;9.910;2023-07-13T09:38:22;4.27;;;1.70;;
19877;SDS011;10101;52.204;9.910;2023-07-13T09:41:03;4.40;;;1.40;;
19877;SDS011;10101;52.204;9.910;2023-07-13T09:43:55;6.77;;;1.80;;
19877;SDS011;10101;52.204;9.910;2023-07-13T09:46:27;4.97;;;1.50;;
19877;SDS011;10101;52.204;9.910;2023-07-13T09:48:56;2.40;;;1.47;;
19877;SDS011;10101;52.204;9.910;2023-07-13T09:51:22;4.00;;;1.70;;
19877;SDS011;10101;52.204;9.910;2023-07-13T09:53:49;2.93;;;1.53;;
19877;SDS011;10101;52.204;9.910;2023-07-13T09:56:19;5.73;;;1.60;;
19877;SDS011;10101;52.204;9.910;2023-07-13T09:58:47;8.93;;;2.03;;
19877;SDS011;10101;52.204;9.910;2023-07-13T10:01:14;5.57;;;2.10;;
19877;SDS011;10101;52.204;9.910;2023-07-13T10:03:52;4.70;;;1.30;;
19877;SDS011;10101;52.204;9.910;2023-07-13T10:06:21;2.97;;;1.50;;
19877;SDS011;10101;52.204;9.910;2023-07-13T10:08:49;4.33;;;1.40;;
19877;SDS011;10101;52.204;9.910;2023-07-13T10:11:17;2.65;;;1.42;;
19877;SDS011;10101;52.204;9.910;2023-07-13T10:13:49;2.80;;;1.60;;
19877;SDS011;10101;52.204;9.910;2023-07-13T10:16:18;5.67;;;1.40;;
19877;SDS011;10101;52.204;9.910;2023-07-13T10:18:46;4.07;;;1.37;;
19877;SDS011;10101;52.204;9.910;2023-07-13T10:21:17;4.68;;;1.40;;
19877;SDS011;10101;52.204;9.910;2023-07-13T10:23:48;5.67;;;1.50;;
19877;SDS011;10101;52.204;9.910;2023-07-13T10:26:21;3.17;;;1.42;;
19877;SDS011;10101;52.204;9.910;2023-07-13T10:28:51;6.50;;;1.65;;
19877;SDS011;10101;52.204;9.910;2023-07-13T10:31:20;2.90;;;1.50;;
19877;SDS011;10101;52.204;9.910;2023-07-13T10:33:48;4.23;;;1.40;;
19877;SDS011;10101;52.204;9.910;2023-07-13T10:36:18;1.90;;;1.20;;
19877;SDS011;10101;52.204;9.910;2023-07-13T10:38:55;4.43;;;1.50;;
19877;SDS011;10101;52.204;9.910;2023-07-13T10:41:24;6.20;;;1.63;;
19877;SDS011;10101;52.204;9.910;2023-07-13T10:43:54;4.10;;;1.40;;
19877;SDS011;10101;52.204;9.910;2023-07-13T10:46:23;3.90;;;1.52;;
19877;SDS011;10101;52.204;9.910;2023-07-13T10:48:53;4.53;;;1.75;;
19877;SDS011;10101;52.204;9.910;2023-07-13T10:51:24;2.33;;;0.98;;
19877;SDS011;10101;52.204;9.910;2023-07-13T10:54:15;5.68;;;1.20;;
19877;SDS011;10101;52.204;9.910;2023-07-13T10:56:44;4.00;;;1.40;;
19877;SDS011;10101;52.204;9.910;2023-07-13T10:59:13;2.90;;;1.20;;
19877;SDS011;10101;52.204;9.910;2023-07-13T11:01:48;2.90;;;1.30;;
19877;SDS011;10101;52.204;9.910;2023-07-13T11:04:19;2.42;;;1.45;;
19877;SDS011;10101;52.204;9.910;2023-07-13T11:06:47;4.90;;;1.30;;
19877;SDS011;10101;52.204;9.910;2023-07-13T11:09:30;5.55;;;1.58;;
19877;SDS011;10101;52.204;9.910;2023-07-13T11:12:09;3.25;;;1.15;;
19877;SDS011;10101;52.204;9.910;2023-07-13T11:15:02;4.43;;;1.35;;
19877;SDS011;10101;52.204;9.910;2023-07-13T11:17:34;4.05;;;1.30;;
19877;SDS011;10101;52.204;9.910;2023-07-13T11:20:21;3.30;;;1.17;;
19877;SDS011;10101;52.204;9.910;2023-07-13T11:25:56;3.55;;;1.33;;
19877;SDS011;10101;52.204;9.910;2023-07-13T11:28:25;2.65;;;1.25;;
19877;SDS011;10101;52.204;9.910;2023-07-13T11:31:00;2.67;;;1.10;;
19877;SDS011;10101;52.204;9.910;2023-07-13T11:33:52;4.45;;;1.20;;
19877;SDS011;10101;52.204;9.910;2023-07-13T11:36:23;6.45;;;1.50;;
19877;SDS011;10101;52.204;9.910;2023-07-13T11:38:57;4.13;;;1.42;;
19877;SDS011;10101;52.204;9.910;2023-07-13T11:41:28;2.95;;;1.50;;
19877;SDS011;10101;52.204;9.910;2023-07-13T11:44:01;2.45;;;1.33;;
19877;SDS011;10101;52.204;9.910;2023-07-13T11:46:32;5.05;;;1.60;;
19877;SDS011;10101;52.204;9.910;2023-07-13T11:48:59;4.85;;;1.60;;
19877;SDS011;10101;52.204;9.910;2023-07-13T11:51:26;3.25;;;1.50;;
19877;SDS011;10101;52.204;9.910;2023-07-13T11:53:56;4.32;;;1.90;;
19877;SDS011;10101;52.204;9.910;2023-07-13T11:56:28;2.53;;;1.30;;
19877;SDS011;10101;52.204;9.910;2023-07-13T11:58:56;1.77;;;1.27;;
19877;SDS011;10101;52.204;9.910;2023-07-13T12:01:24;6.03;;;1.42;;
19877;SDS011;10101;52.204;9.910;2023-07-13T12:03:54;2.90;;;1.20;;
19877;SDS011;10101;52.204;9.910;2023-07-13T12:06:24;3.88;;;1.30;;
19877;SDS011;10101;52.204;9.910;2023-07-13T12:08:55;4.68;;;1.73;;
19877;SDS011;10101;52.204;9.910;2023-07-13T12:11:24;5.20;;;1.90;;
19877;SDS011;10101;52.204;9.910;2023-07-13T12:13:52;1.92;;;1.30;;
19877;SDS011;10101;52.204;9.910;2023-07-13T12:16:22;3.05;;;1.50;;
19877;SDS011;10101;52.204;9.910;2023-07-13T12:18:53;4.95;;;1.75;;
19877;SDS011;10101;52.204;9.910;2023-07-13T12:21:22;4.10;;;1.45;;
19877;SDS011;10101;52.204;9.910;2023-07-13T12:23:55;2.88;;;1.23;;
19877;SDS011;10101;52.204;9.910;2023-07-13T12:26:22;2.47;;;1.30;;
19877;SDS011;10101;52.204;9.910;2023-07-13T12:28:49;2.15;;;1.52;;
19877;SDS011;10101;52.204;9.910;2023-07-13T12:31:31;2.72;;;1.30;;
19877;SDS011;10101;52.204;9.910;2023-07-13T12:34:01;4.38;;;1.52;;
19877;SDS011;10101;52.204;9.910;2023-07-13T12:36:35;3.75;;;1.40;;
19877;SDS011;10101;52.204;9.910;2023-07-13T12:39:04;4.13;;;1.70;;
19877;SDS011;10101;52.204;9.910;2023-07-13T12:41:38;3.38;;;1.48;;
19877;SDS011;10101;52.204;9.910;2023-07-13T12:44:08;4.85;;;1.85;;
19877;SDS011;10101;52.204;9.910;2023-07-13T12:46:38;3.63;;;1.40;;
19877;SDS011;10101;52.204;9.910;2023-07-13T12:49:05;4.10;;;1.60;;
19877;SDS011;10101;52.204;9.910;2023-07-13T12:51:33;4.38;;;1.25;;
19877;SDS011;10101;52.204;9.910;2023-07-13T12:54:05;3.30;;;1.50;;
19877;SDS011;10101;52.204;9.910;2023-07-13T12:56:38;3.80;;;1.60;;
19877;SDS011;10101;52.204;9.910;2023-07-13T12:59:05;4.07;;;1.42;;
19877;SDS011;10101;52.204;9.910;2023-07-13T13:01:34;3.95;;;1.58;;
19877;SDS011;10101;52.204;9.910;2023-07-13T13:04:03;2.92;;;1.50;;
19877;SDS011;10101;52.204;9.910;2023-07-13T13:06:31;2.30;;;1.30;;
19877;SDS011;10101;52.204;9.910;2023-07-13T13:09:01;3.17;;;1.85;;
19877;SDS011;10101;52.204;9.910;2023-07-13T13:11:29;3.20;;;1.40;;
19877;SDS011;10101;52.204;9.910;2023-07-13T13:13:57;5.05;;;1.55;;
19877;SDS011;10101;52.204;9.910;2023-07-13T13:16:29;2.33;;;1.50;;
19877;SDS011;10101;52.204;9.910;2023-07-13T13:18:59;2.75;;;1.55;;
19877;SDS011;10101;52.204;9.910;2023-07-13T13:21:36;2.88;;;1.50;;
19877;SDS011;10101;52.204;9.910;2023-07-13T13:24:04;4.38;;;1.70;;
19877;SDS011;10101;52.204;9.910;2023-07-13T13:26:35;4.65;;;1.60;;
19877;SDS011;10101;52.204;9.910;2023-07-13T13:29:03;2.53;;;1.60;;
19877;SDS011;10101;52.204;9.910;2023-07-13T13:31:35;4.45;;;1.80;;
19877;SDS011;10101;52.204;9.910;2023-07-13T13:34:04;3.00;;;1.60;;
19877;SDS011;10101;52.204;9.910;2023-07-13T13:36:35;4.40;;;1.77;;
19877;SDS011;10101;52.204;9.910;2023-07-13T13:39:02;2.70;;;1.83;;
19877;SDS011;10101;52.204;9.910;2023-07-13T13:41:31;2.83;;;1.80;;
19877;SDS011;10101;52.204;9.910;2023-07-13T13:43:58;4.40;;;1.48;;
19877;SDS011;10101;52.204;9.910;2023-07-13T13:46:25;3.20;;;1.92;;
19877;SDS011;10101;52.204;9.910;2023-07-13T13:48:53;2.58;;;1.55;;
19877;SDS011;10101;52.204;9.910;2023-07-13T13:51:23;2.53;;;1.65;;
19877;SDS011;10101;52.204;9.910;2023-07-13T13:53:50;4.50;;;1.90;;
19877;SDS011;10101;52.204;9.910;2023-07-13T13:56:18;2.00;;;1.42;;
19877;SDS011;10101;52.204;9.910;2023-07-13T13:58:45;4.15;;;1.98;;
19877;SDS011;10101;52.204;9.910;2023-07-13T14:01:13;2.15;;;1.60;;
19877;SDS011;10101;52.204;9.910;2023-07-13T14:03:43;3.72;;;2.03;;
19877;SDS011;10101;52.204;9.910;2023-07-13T14:06:11;3.97;;;1.67;;
19877;SDS011;10101;52.204;9.910;2023-07-13T14:08:39;3.65;;;1.90;;
19877;SDS011;10101;52.204;9.910;2023-07-13T14:11:07;5.55;;;2.05;;
19877;SDS011;10101;52.204;9.910;2023-07-13T14:13:39;2.08;;;1.88;;
19877;SDS011;10101;52.204;9.910;2023-07-13T14:16:09;6.97;;;2.00;;
19877;SDS011;10101;52.204;9.910;2023-07-13T14:18:38;2.30;;;1.60;;
19877;SDS011;10101;52.204;9.910;2023-07-13T14:21:08;2.80;;;1.45;;
19877;SDS011;10101;52.204;9.910;2023-07-13T14:23:37;6.75;;;1.33;;
19877;SDS011;10101;52.204;9.910;2023-07-13T14:26:08;1.38;;;1.23;;
19877;SDS011;10101;52.204;9.910;2023-07-13T14:28:37;4.28;;;1.70;;
19877;SDS011;10101;52.204;9.910;2023-07-13T14:31:08;3.30;;;1.33;;
19877;SDS011;10101;52.204;9.910;2023-07-13T14:33:35;3.03;;;1.60;;
19877;SDS011;10101;52.204;9.910;2023-07-13T14:36:01;6.85;;;1.90;;
19877;SDS011;10101;52.204;9.910;2023-07-13T14:38:28;4.30;;;1.80;;
19877;SDS011;10101;52.204;9.910;2023-07-13T14:40:56;4.40;;;1.73;;
19877;SDS011;10101;52.204;9.910;2023-07-13T14:43:23;2.85;;;1.60;;
19877;SDS011;10101;52.204;9.910;2023-07-13T14:45:53;4.05;;;1.70;;
19877;SDS011;10101;52.204;9.910;2023-07-13T14:48:21;4.47;;;1.70;;
19877;SDS011;10101;52.204;9.910;2023-07-13T14:50:50;4.80;;;1.80;;
19877;SDS011;10101;52.204;9.910;2023-07-13T14:53:20;5.53;;;1.90;;
19877;SDS011;10101;52.204;9.910;2023-07-13T14:55:47;3.93;;;1.57;;
19877;SDS011;10101;52.204;9.910;2023-07-13T14:58:15;4.77;;;1.70;;
19877;SDS011;10101;52.204;9.910;2023-07-13T15:00:41;4.33;;;1.77;;
19877;SDS011;10101;52.204;9.910;2023-07-13T15:03:13;1.87;;;1.40;;